createdAt,value
2017-11-11T00:00:53.742Z,4.73
2017-11-11T00:03:21.234Z,3.37
2017-11-11T00:05:48.708Z,3.30
2017-11-11T00:08:16.145Z,2.43
2017-11-11T00:10:43.633Z,2.40
2017-11-11T00:13:11.229Z,3.23
2017-11-11T00:15:38.728Z,2.30
2017-11-11T00:18:06.185Z,2.23
2017-11-11T00:20:33.709Z,1.77
2017-11-11T00:23:01.945Z,1.30
2017-11-11T00:25:29.389Z,3.00
2017-11-11T00:27:56.890Z,3.30
2017-11-11T00:30:24.331Z,9.03
2017-11-11T00:32:51.826Z,1.20
2017-11-11T00:35:20.090Z,1.33
2017-11-11T00:37:47.588Z,2.27
2017-11-11T00:40:15.858Z,2.60
2017-11-11T00:42:44.167Z,1.90
2017-11-11T00:45:11.574Z,1.97
2017-11-11T00:47:39.087Z,4.53
2017-11-11T00:50:06.730Z,2.73
2017-11-11T00:52:34.967Z,2.13
2017-11-11T00:55:02.422Z,3.40
2017-11-11T00:57:29.907Z,3.73
2017-11-11T00:59:57.382Z,3.33
2017-11-11T01:02:24.891Z,3.73
2017-11-11T01:04:52.308Z,7.83
2017-11-11T01:07:20.531Z,4.23
2017-11-11T01:09:48.035Z,6.70
2017-11-11T01:12:15.515Z,16.63
2017-11-11T01:14:43.813Z,10.77
2017-11-11T01:17:11.271Z,11.03
2017-11-11T01:19:39.545Z,5.13
2017-11-11T01:22:07.909Z,20.50
2017-11-11T01:24:35.310Z,6.07
2017-11-11T01:27:02.784Z,11.77
2017-11-11T01:29:30.244Z,7.23
2017-11-11T01:31:57.738Z,8.30
2017-11-11T01:34:25.246Z,9.33
2017-11-11T01:36:52.697Z,7.80
2017-11-11T01:39:20.920Z,5.63
2017-11-11T01:41:48.382Z,5.87
2017-11-11T01:44:15.867Z,9.67
2017-11-11T01:46:43.325Z,15.07
2017-11-11T01:49:10.823Z,4.93
2017-11-11T01:51:38.308Z,12.47
2017-11-11T01:54:06.528Z,4.53
2017-11-11T01:56:34.004Z,5.90
2017-11-11T01:59:01.467Z,6.67
2017-11-11T02:01:28.956Z,15.63
2017-11-11T02:03:56.535Z,14.83
2017-11-11T02:06:23.954Z,6.10
2017-11-11T02:08:51.434Z,5.27
2017-11-11T02:11:18.931Z,7.60
2017-11-11T02:13:47.151Z,5.87
2017-11-11T02:16:14.645Z,6.57
2017-11-11T02:18:42.185Z,12.97
2017-11-11T02:21:09.612Z,11.47
2017-11-11T02:23:37.063Z,4.50
2017-11-11T02:26:05.302Z,4.70
2017-11-11T02:28:32.807Z,9.67
2017-11-11T02:31:01.022Z,8.73
2017-11-11T02:33:28.467Z,9.73
2017-11-11T02:35:55.964Z,6.80
2017-11-11T02:38:23.417Z,7.77
2017-11-11T02:40:50.856Z,4.80
2017-11-11T02:43:18.361Z,7.10
2017-11-11T02:45:45.850Z,13.73
2017-11-11T02:48:14.057Z,7.70
2017-11-11T02:50:41.548Z,5.80
2017-11-11T02:53:09.003Z,3.47
2017-11-11T02:55:36.523Z,8.23
2017-11-11T02:58:04.752Z,8.60
2017-11-11T03:00:32.169Z,5.17
2017-11-11T03:02:59.649Z,5.87
2017-11-11T03:05:27.106Z,9.83
2017-11-11T03:07:54.594Z,11.77
2017-11-11T03:10:22.065Z,15.90
2017-11-11T03:12:49.547Z,13.40
2017-11-11T03:15:17.047Z,8.13
2017-11-11T03:17:44.527Z,8.07
2017-11-11T03:20:12.018Z,10.40
2017-11-11T03:22:39.507Z,7.70
2017-11-11T03:25:07.065Z,12.43
2017-11-11T03:27:34.509Z,20.47
2017-11-11T03:30:01.989Z,12.67
2017-11-11T03:32:29.465Z,9.53
2017-11-11T03:34:57.711Z,9.60
2017-11-11T03:37:25.175Z,9.93
2017-11-11T03:39:52.675Z,15.37
2017-11-11T03:42:20.157Z,18.43
2017-11-11T03:44:47.650Z,6.20
2017-11-11T03:47:15.107Z,12.53
2017-11-11T03:49:42.605Z,8.70
2017-11-11T03:52:10.070Z,11.97
2017-11-11T03:54:37.594Z,8.17
2017-11-11T03:57:05.073Z,6.87
2017-11-11T03:59:32.562Z,13.63
2017-11-11T04:02:00.022Z,6.00
2017-11-11T04:04:27.472Z,8.77
2017-11-11T04:06:54.953Z,7.80
2017-11-11T04:09:23.171Z,11.20
2017-11-11T04:11:50.666Z,9.20
2017-11-11T04:14:18.149Z,13.40
2017-11-11T04:16:45.608Z,8.97
2017-11-11T04:19:13.093Z,14.73
2017-11-11T04:21:41.392Z,18.67
2017-11-11T04:24:08.837Z,7.37
2017-11-11T04:26:36.282Z,6.27
2017-11-11T04:29:03.740Z,13.30
2017-11-11T04:31:31.193Z,7.43
2017-11-11T04:33:58.681Z,18.70
2017-11-11T04:36:26.918Z,22.93
2017-11-11T04:38:54.399Z,5.17
2017-11-11T04:41:21.879Z,10.23
2017-11-11T04:43:49.350Z,15.17
2017-11-11T04:46:17.554Z,9.37
2017-11-11T04:48:45.046Z,14.27
2017-11-11T04:51:12.502Z,13.33
2017-11-11T04:53:40.004Z,12.63
2017-11-11T04:56:07.459Z,5.63
2017-11-11T04:58:35.020Z,10.93
2017-11-11T05:01:02.521Z,9.03
2017-11-11T05:03:29.958Z,8.47
2017-11-11T05:05:57.461Z,8.80
2017-11-11T05:08:25.012Z,4.50
2017-11-11T05:10:53.214Z,9.27
2017-11-11T05:13:20.766Z,5.53
2017-11-11T05:15:48.311Z,20.73
2017-11-11T05:18:16.572Z,6.70
2017-11-11T05:20:44.024Z,10.90
2017-11-11T05:23:11.562Z,16.17
2017-11-11T05:25:39.049Z,8.97
2017-11-11T05:28:06.477Z,13.40
2017-11-11T05:30:33.993Z,6.17
2017-11-11T05:33:01.468Z,20.93
2017-11-11T05:35:29.720Z,17.47
2017-11-11T05:37:57.230Z,15.10
2017-11-11T05:40:24.772Z,20.40
2017-11-11T05:42:53.024Z,12.00
2017-11-11T05:45:21.304Z,11.77
2017-11-11T05:47:48.820Z,8.20
2017-11-11T05:50:16.299Z,26.47
2017-11-11T05:52:44.373Z,20.23
2017-11-11T05:55:11.921Z,9.17
2017-11-11T05:57:40.281Z,4.90
2017-11-11T06:00:08.496Z,4.70
2017-11-11T06:02:35.932Z,13.70
2017-11-11T06:05:03.455Z,6.10
2017-11-11T06:07:30.897Z,15.93
2017-11-11T06:09:58.360Z,20.43
2017-11-11T06:12:25.934Z,5.20
2017-11-11T06:14:53.426Z,7.00
2017-11-11T06:17:20.925Z,10.90
2017-11-11T06:19:48.381Z,4.77
2017-11-11T06:22:16.002Z,5.80
2017-11-11T06:24:43.436Z,10.37
2017-11-11T06:27:10.887Z,9.13
2017-11-11T06:29:38.369Z,6.77
2017-11-11T06:32:05.898Z,12.10
2017-11-11T06:34:34.176Z,4.10
2017-11-11T06:37:01.681Z,6.27
2017-11-11T06:39:29.160Z,11.17
2017-11-11T06:41:56.616Z,4.90
2017-11-11T06:44:24.195Z,6.13
2017-11-11T06:46:51.742Z,7.97
2017-11-11T06:49:19.245Z,6.47
2017-11-11T06:51:46.768Z,5.87
2017-11-11T06:54:14.221Z,3.87
2017-11-11T06:56:41.724Z,3.97
2017-11-11T06:59:10.030Z,5.73
2017-11-11T07:01:37.487Z,14.37
2017-11-11T07:04:05.015Z,14.97
2017-11-11T07:06:32.504Z,7.47
2017-11-11T07:09:00.032Z,8.20
2017-11-11T07:11:27.549Z,4.17
2017-11-11T07:13:55.901Z,11.93
2017-11-11T07:16:23.356Z,4.37
2017-11-11T07:18:50.843Z,8.60
2017-11-11T07:21:18.328Z,12.27
2017-11-11T07:23:45.819Z,12.93
2017-11-11T07:26:13.396Z,4.90
2017-11-11T07:28:40.796Z,6.33
2017-11-11T07:31:08.347Z,6.83
2017-11-11T07:33:35.805Z,9.07
2017-11-11T07:36:04.094Z,5.83
2017-11-11T07:38:31.549Z,6.80
2017-11-11T07:40:59.011Z,6.00
2017-11-11T07:43:27.319Z,10.23
2017-11-11T07:45:54.791Z,9.70
2017-11-11T07:48:22.305Z,4.73
2017-11-11T07:50:49.765Z,6.60
2017-11-11T07:53:18.021Z,8.13
2017-11-11T07:55:46.133Z,8.40
2017-11-11T07:58:13.615Z,11.43
2017-11-11T08:00:41.117Z,10.57
2017-11-11T08:03:08.581Z,4.43
2017-11-11T08:05:36.085Z,7.40
2017-11-11T08:08:04.315Z,5.03
2017-11-11T08:10:31.747Z,7.80
2017-11-11T08:12:59.287Z,4.80
2017-11-11T08:15:26.749Z,5.73
2017-11-11T08:17:54.214Z,6.73
2017-11-11T08:20:22.425Z,5.40
2017-11-11T08:22:49.956Z,6.60
2017-11-11T08:25:18.259Z,13.83
2017-11-11T08:27:45.678Z,3.80
2017-11-11T08:30:13.220Z,5.23
2017-11-11T08:32:40.628Z,5.93
2017-11-11T08:35:08.888Z,10.43
2017-11-11T08:37:36.366Z,11.17
2017-11-11T08:40:04.657Z,6.30
2017-11-11T08:42:32.946Z,10.40
2017-11-11T08:45:00.372Z,4.50
2017-11-11T08:47:27.877Z,9.23
2017-11-11T08:49:55.338Z,6.40
2017-11-11T08:52:22.853Z,7.57
2017-11-11T08:54:50.373Z,9.47
2017-11-11T08:57:17.879Z,6.63
2017-11-11T08:59:45.393Z,10.60
2017-11-11T09:02:12.842Z,4.70
2017-11-11T09:04:40.279Z,6.13
2017-11-11T09:07:07.875Z,10.13
2017-11-11T09:09:35.287Z,7.37
2017-11-11T09:12:02.819Z,14.40
2017-11-11T09:14:31.324Z,6.20
2017-11-11T09:16:58.828Z,4.37
2017-11-11T09:19:27.094Z,5.50
2017-11-11T09:21:54.572Z,3.17
2017-11-11T09:24:22.871Z,3.60
2017-11-11T09:26:50.322Z,6.50
2017-11-11T09:29:18.584Z,4.60
2017-11-11T09:31:46.077Z,6.80
2017-11-11T09:34:13.576Z,5.80
2017-11-11T09:36:41.076Z,4.57
2017-11-11T09:39:08.545Z,18.27
2017-11-11T09:41:36.765Z,5.30
2017-11-11T09:44:04.227Z,5.43
2017-11-11T09:46:31.776Z,13.27
2017-11-11T09:49:00.014Z,4.43
2017-11-11T09:51:27.458Z,6.53
2017-11-11T09:53:54.974Z,5.57
2017-11-11T09:56:23.228Z,5.80
2017-11-11T09:58:50.729Z,4.30
2017-11-11T10:01:18.214Z,8.33
2017-11-11T10:03:45.683Z,6.40
2017-11-11T10:06:13.188Z,3.30
2017-11-11T10:08:41.411Z,4.93
2017-11-11T10:11:08.910Z,2.90
2017-11-11T10:13:36.509Z,6.60
2017-11-11T10:16:03.937Z,8.87
2017-11-11T10:18:31.507Z,4.70
2017-11-11T10:20:59.008Z,8.67
2017-11-11T10:23:26.410Z,2.80
2017-11-11T10:25:53.942Z,11.73
2017-11-11T10:28:21.433Z,4.70
2017-11-11T10:30:48.953Z,4.17
2017-11-11T10:33:17.258Z,3.97
2017-11-11T10:35:44.776Z,6.13
2017-11-11T10:38:12.276Z,4.20
2017-11-11T10:40:39.739Z,8.87
2017-11-11T10:43:07.347Z,5.00
2017-11-11T10:45:34.812Z,9.37
2017-11-11T10:48:02.275Z,8.63
2017-11-11T10:50:29.773Z,4.00
2017-11-11T10:52:58.078Z,3.93
2017-11-11T10:55:25.503Z,4.00
2017-11-11T10:57:53.709Z,4.40
2017-11-11T11:00:21.274Z,3.90
2017-11-11T11:02:48.718Z,6.13
2017-11-11T11:05:16.994Z,3.80
2017-11-11T11:07:44.497Z,9.93
2017-11-11T11:10:11.952Z,3.97
2017-11-11T11:12:39.436Z,3.57
2017-11-11T11:15:06.890Z,7.77
2017-11-11T11:17:34.385Z,6.30
2017-11-11T11:20:01.848Z,4.50
2017-11-11T11:22:29.326Z,6.83
2017-11-11T11:24:57.584Z,4.70
2017-11-11T11:27:25.092Z,6.30
2017-11-11T11:29:52.579Z,6.07
2017-11-11T11:32:20.042Z,5.90
2017-11-11T11:34:47.620Z,9.57
2017-11-11T11:37:15.099Z,3.87
2017-11-11T11:39:42.694Z,11.70
2017-11-11T11:42:10.959Z,9.00
2017-11-11T11:44:38.462Z,7.13
2017-11-11T11:47:05.969Z,5.33
2017-11-11T11:49:33.443Z,5.67
2017-11-11T11:52:00.980Z,3.87
2017-11-11T11:54:28.514Z,5.33
2017-11-11T11:56:55.960Z,4.50
2017-11-11T11:59:24.223Z,9.23
2017-11-11T12:01:51.760Z,4.27
2017-11-11T12:04:19.204Z,7.00
2017-11-11T12:06:46.791Z,9.90
2017-11-11T12:09:14.264Z,4.57
2017-11-11T12:11:41.808Z,8.73
2017-11-11T12:14:09.296Z,6.37
2017-11-11T12:16:36.783Z,13.33
2017-11-11T12:19:04.261Z,12.67
2017-11-11T12:21:31.758Z,5.60
2017-11-11T12:23:59.247Z,10.93
2017-11-11T12:26:26.644Z,4.47
2017-11-11T12:28:54.158Z,5.13
2017-11-11T12:31:21.723Z,6.47
2017-11-11T12:33:49.946Z,5.10
2017-11-11T12:36:17.441Z,5.20
2017-11-11T12:38:44.890Z,4.47
2017-11-11T12:41:12.416Z,5.37
2017-11-11T12:43:39.886Z,5.87
2017-11-11T12:46:07.384Z,9.07
2017-11-11T12:48:34.828Z,6.00
2017-11-11T12:51:02.351Z,6.23
2017-11-11T12:53:29.796Z,5.23
2017-11-11T12:55:57.298Z,4.57
2017-11-11T12:58:25.556Z,6.23
2017-11-11T13:00:53.012Z,8.97
2017-11-11T13:03:20.511Z,5.87
2017-11-11T13:05:47.970Z,5.30
2017-11-11T13:08:16.290Z,7.00
2017-11-11T13:10:43.772Z,5.40
2017-11-11T13:13:11.993Z,4.83
2017-11-11T13:15:40.268Z,5.50
2017-11-11T13:18:08.535Z,6.13
2017-11-11T13:20:36.021Z,6.13
2017-11-11T13:23:03.467Z,8.40
2017-11-11T13:25:30.922Z,14.60
2017-11-11T13:27:58.440Z,12.67
2017-11-11T13:30:26.681Z,9.57
2017-11-11T13:32:54.914Z,6.40
2017-11-11T13:35:22.372Z,6.83
2017-11-11T13:37:49.882Z,5.83
2017-11-11T13:40:18.116Z,8.63
2017-11-11T13:42:45.589Z,8.50
2017-11-11T13:45:13.066Z,6.47
2017-11-11T13:47:40.564Z,8.40
2017-11-11T13:50:08.020Z,8.20
2017-11-11T13:52:36.286Z,11.63
2017-11-11T13:55:04.570Z,11.67
2017-11-11T13:57:32.029Z,10.30
2017-11-11T13:59:59.547Z,9.33
2017-11-11T14:02:27.771Z,9.10
2017-11-11T14:04:55.266Z,8.20
2017-11-11T14:07:22.789Z,15.90
2017-11-11T14:09:50.232Z,11.20
2017-11-11T14:12:17.725Z,14.57
2017-11-11T14:14:45.956Z,8.07
2017-11-11T14:17:13.457Z,11.60
2017-11-11T14:19:40.973Z,14.63
2017-11-11T14:22:09.256Z,11.13
2017-11-11T14:24:36.697Z,9.73
2017-11-11T14:27:04.186Z,15.60
2017-11-11T14:29:31.690Z,13.30
2017-11-11T14:31:59.116Z,16.27
2017-11-11T14:34:26.575Z,23.13
2017-11-11T14:36:54.094Z,18.83
2017-11-11T14:39:22.336Z,24.67
2017-11-11T14:41:49.865Z,17.50
2017-11-11T14:44:17.381Z,21.17
2017-11-11T14:46:44.870Z,23.80
2017-11-11T14:49:13.216Z,23.37
2017-11-11T14:51:40.640Z,16.67
2017-11-11T14:54:08.162Z,18.00
2017-11-11T14:56:35.690Z,14.93
2017-11-11T14:59:03.180Z,17.60
2017-11-11T15:01:30.699Z,19.77
2017-11-11T15:03:58.240Z,14.60
2017-11-11T15:06:25.744Z,14.73
2017-11-11T15:08:53.227Z,7.27
2017-11-11T15:11:20.790Z,5.70
2017-11-11T15:13:48.238Z,3.33
2017-11-11T15:16:15.740Z,2.80
2017-11-11T15:18:43.188Z,2.50
2017-11-11T15:21:11.471Z,3.10
2017-11-11T15:23:39.006Z,3.10
2017-11-11T15:26:06.507Z,3.93
2017-11-11T15:28:34.778Z,5.73
2017-11-11T15:31:02.248Z,12.23
2017-11-11T15:33:30.500Z,2.40
2017-11-11T15:35:58.003Z,7.00
2017-11-11T15:38:26.291Z,6.20
2017-11-11T15:40:54.552Z,3.77
2017-11-11T15:43:22.807Z,3.23
2017-11-11T15:45:50.283Z,2.83
2017-11-11T15:48:17.785Z,2.33
2017-11-11T15:50:45.271Z,3.33
2017-11-11T15:53:12.759Z,4.30
2017-11-11T15:55:40.238Z,4.00
2017-11-11T15:58:07.709Z,2.90
2017-11-11T16:00:35.190Z,8.93
2017-11-11T16:03:02.644Z,2.63
2017-11-11T16:05:30.961Z,2.20
2017-11-11T16:07:58.406Z,3.70
2017-11-11T16:10:25.914Z,5.27
2017-11-11T16:12:53.410Z,4.37
2017-11-11T16:15:21.630Z,4.13
2017-11-11T16:17:49.185Z,6.00
2017-11-11T16:20:16.635Z,3.47
2017-11-11T16:22:44.090Z,4.37
2017-11-11T16:25:11.590Z,4.07
2017-11-11T16:27:39.049Z,6.20
2017-11-11T16:30:06.578Z,4.03
2017-11-11T16:32:34.093Z,4.00
2017-11-11T16:35:01.529Z,5.00
2017-11-11T16:37:29.033Z,5.03
2017-11-11T16:39:56.485Z,3.93
2017-11-11T16:42:23.968Z,4.67
2017-11-11T16:44:51.474Z,7.03
2017-11-11T16:47:18.968Z,5.33
2017-11-11T16:49:46.437Z,10.20
2017-11-11T16:52:13.849Z,6.77
2017-11-11T16:54:41.325Z,14.80
2017-11-11T16:57:08.847Z,14.20
2017-11-11T16:59:37.341Z,15.20
2017-11-11T17:02:05.653Z,10.17
2017-11-11T17:04:33.916Z,17.03
2017-11-11T17:07:02.196Z,9.07
2017-11-11T17:09:29.610Z,8.53
2017-11-11T17:11:57.505Z,5.07
2017-11-11T17:14:25.733Z,6.47
2017-11-11T17:16:53.274Z,11.50
2017-11-11T17:19:20.810Z,7.37
2017-11-11T17:21:48.306Z,7.40
2017-11-11T17:24:16.056Z,5.83
2017-11-11T17:26:44.281Z,7.30
2017-11-11T17:29:11.763Z,7.53
2017-11-11T17:31:39.242Z,5.00
2017-11-11T17:34:06.777Z,18.93
2017-11-11T17:36:34.216Z,8.60
2017-11-11T17:39:01.769Z,11.00
2017-11-11T17:41:29.217Z,6.87
2017-11-11T17:43:57.490Z,6.57
2017-11-11T17:46:24.963Z,6.63
2017-11-11T17:48:53.238Z,6.63
2017-11-11T17:51:21.440Z,6.00
2017-11-11T17:53:48.901Z,11.37
2017-11-11T17:56:16.411Z,7.97
2017-11-11T17:58:43.878Z,7.63
2017-11-11T18:01:11.351Z,8.40
2017-11-11T18:03:38.826Z,15.00
2017-11-11T18:06:07.085Z,13.97
2017-11-11T18:08:34.519Z,15.23
2017-11-11T18:11:01.987Z,7.87
2017-11-11T18:13:29.458Z,10.20
2017-11-11T18:15:56.910Z,27.87
2017-11-11T18:18:24.475Z,19.30
2017-11-11T18:20:51.888Z,17.00
2017-11-11T18:23:19.421Z,14.40
2017-11-11T18:25:46.893Z,12.80
2017-11-11T18:28:14.362Z,15.70
2017-11-11T18:30:42.672Z,11.80
2017-11-11T18:33:10.110Z,15.53
2017-11-11T18:35:38.449Z,14.47
2017-11-11T18:38:05.865Z,15.40
2017-11-11T18:40:34.116Z,12.00
2017-11-11T18:43:01.631Z,18.93
2017-11-11T18:45:29.096Z,26.50
2017-11-11T18:47:56.642Z,10.80
2017-11-11T18:50:24.133Z,14.70
2017-11-11T18:52:51.631Z,12.20
2017-11-11T18:55:19.115Z,11.43
2017-11-11T18:57:46.598Z,17.30
2017-11-11T19:00:14.068Z,14.83
2017-11-11T19:02:41.589Z,12.90
2017-11-11T19:05:09.083Z,13.10
2017-11-11T19:07:36.559Z,10.20
2017-11-11T19:10:04.027Z,14.80
2017-11-11T19:12:31.476Z,9.00
2017-11-11T19:14:58.962Z,26.53
2017-11-11T19:17:26.410Z,14.87
2017-11-11T19:19:53.945Z,9.10
2017-11-11T19:22:21.375Z,15.03
2017-11-11T19:24:48.871Z,13.33
2017-11-11T19:27:17.127Z,15.17
2017-11-11T19:29:44.619Z,18.73
2017-11-11T19:32:12.086Z,14.67
2017-11-11T19:34:40.309Z,13.37
2017-11-11T19:37:07.856Z,12.13
2017-11-11T19:39:35.394Z,13.17
2017-11-11T19:42:03.643Z,14.67
2017-11-11T19:44:31.218Z,17.03
2017-11-11T19:46:58.689Z,16.70
2017-11-11T19:49:26.925Z,14.57
2017-11-11T19:51:54.391Z,16.83
2017-11-11T19:54:21.890Z,17.50
2017-11-11T19:56:49.398Z,16.30
2017-11-11T19:59:16.843Z,16.33
2017-11-11T20:01:44.341Z,17.77
2017-11-11T20:04:11.866Z,20.27
2017-11-11T20:06:39.375Z,14.43
2017-11-11T20:09:06.837Z,18.97
2017-11-11T20:11:35.385Z,9.90
2017-11-11T20:14:02.894Z,12.57
2017-11-11T20:16:31.200Z,20.07
2017-11-11T20:18:58.647Z,13.00
2017-11-11T20:21:26.094Z,16.50
2017-11-11T20:23:53.674Z,15.30
2017-11-11T20:26:21.148Z,14.00
2017-11-11T20:28:48.881Z,16.70
2017-11-11T20:31:16.322Z,13.30
2017-11-11T20:33:43.833Z,17.93
2017-11-11T20:36:13.203Z,13.20
2017-11-11T20:38:40.858Z,18.90
2017-11-11T20:41:09.066Z,11.93
2017-11-11T20:43:36.519Z,13.30
2017-11-11T20:46:04.027Z,9.67
2017-11-11T20:48:32.254Z,10.40
2017-11-11T20:50:59.794Z,9.67
2017-11-11T20:53:27.288Z,15.50
2017-11-11T20:55:54.782Z,9.80
2017-11-11T20:58:22.211Z,9.80
2017-11-11T21:00:49.735Z,10.40
2017-11-11T21:03:17.163Z,5.63
2017-11-11T21:05:44.660Z,10.33
2017-11-11T21:08:12.167Z,8.23
2017-11-11T21:10:39.631Z,5.50
2017-11-11T21:13:07.086Z,10.23
2017-11-11T21:15:34.597Z,7.03
2017-11-11T21:18:02.978Z,7.30
2017-11-11T21:20:31.239Z,7.67
2017-11-11T21:22:58.703Z,13.37
2017-11-11T21:25:26.801Z,14.70
2017-11-11T21:27:54.244Z,18.60
2017-11-11T21:30:21.755Z,14.70
2017-11-11T21:32:49.274Z,11.43
2017-11-11T21:35:16.746Z,10.07
2017-11-11T21:37:45.048Z,9.30
2017-11-11T21:40:13.193Z,10.07
2017-11-11T21:42:40.675Z,15.13
2017-11-11T21:45:08.943Z,11.57
2017-11-11T21:47:37.221Z,12.30
2017-11-11T21:50:04.722Z,12.40
2017-11-11T21:52:32.189Z,13.33
2017-11-11T21:54:59.696Z,17.50
2017-11-11T21:57:27.151Z,13.47
2017-11-11T21:59:54.612Z,16.20
2017-11-11T22:02:22.988Z,18.13
2017-11-11T22:04:50.479Z,22.93
2017-11-11T22:07:17.985Z,11.87
2017-11-11T22:09:45.466Z,15.47
2017-11-11T22:12:12.952Z,19.67
2017-11-11T22:14:40.450Z,23.73
2017-11-11T22:17:07.935Z,27.20
2017-11-11T22:19:35.395Z,15.30
2017-11-11T22:22:02.894Z,20.60
2017-11-11T22:24:30.409Z,23.07
2017-11-11T22:26:58.634Z,20.47
2017-11-11T22:29:26.088Z,16.53
2017-11-11T22:31:53.600Z,19.67
2017-11-11T22:34:21.829Z,19.07
2017-11-11T22:36:49.318Z,15.97
2017-11-11T22:39:16.810Z,23.40
2017-11-11T22:41:45.040Z,18.23
2017-11-11T22:44:12.580Z,20.60
2017-11-11T22:46:40.045Z,19.93
2017-11-11T22:49:07.565Z,17.47
2017-11-11T22:51:35.787Z,15.67
2017-11-11T22:54:03.296Z,24.00
2017-11-11T22:56:30.778Z,22.30
2017-11-11T22:58:58.281Z,24.63
2017-11-11T23:01:25.742Z,15.70
2017-11-11T23:03:53.197Z,17.70
2017-11-11T23:06:20.707Z,19.03
2017-11-11T23:08:48.191Z,15.30
2017-11-11T23:11:16.443Z,16.90
2017-11-11T23:13:43.962Z,19.77
2017-11-11T23:16:11.423Z,18.13
2017-11-11T23:18:38.879Z,22.73
2017-11-11T23:21:06.379Z,22.07
2017-11-11T23:23:33.890Z,14.33
2017-11-11T23:26:02.121Z,18.93
2017-11-11T23:28:29.577Z,19.60
2017-11-11T23:30:57.088Z,22.20
2017-11-11T23:33:24.555Z,18.27
2017-11-11T23:35:52.857Z,17.83
2017-11-11T23:38:20.337Z,16.23
2017-11-11T23:40:47.772Z,17.37
2017-11-11T23:43:15.269Z,15.60
2017-11-11T23:45:42.753Z,15.20
2017-11-11T23:48:10.225Z,15.27
2017-11-11T23:50:37.695Z,24.33
2017-11-11T23:53:05.201Z,15.23
2017-11-11T23:55:32.672Z,14.97
2017-11-11T23:58:00.157Z,20.53
